Time;durP1;ratioP1;P1;durP2;ratioP2;P2;SDS_P1;SDS_P2;PMS_P1;PMS_P2;Temp;Humidity;BMP_temperature;BMP_pressure;BME280_temperature;BME280_humidity;BME280_pressure;Samples;Min_cycle;Max_cycle;Signal;HPM_P1;HPM_P2
2023/07/19 00:01:17;;;;;;;4.82;2.20;;;;;;;;;;5037031;28;20036;-80
2023/07/19 00:03:43;;;;;;;5.15;2.28;;;;;;;;;;5042507;28;20043;-79
2023/07/19 00:06:08;;;;;;;5.30;2.20;;;;;;;;;;5069609;28;20063;-79
2023/07/19 00:08:34;;;;;;;3.72;1.83;;;;;;;;;;5057185;28;20479;-79
2023/07/19 00:10:59;;;;;;;6.03;2.22;;;;;;;;;;5060429;28;20039;-79
2023/07/19 00:13:25;;;;;;;3.80;1.90;;;;;;;;;;5055671;28;20043;-79
2023/07/19 00:15:50;;;;;;;4.80;2.03;;;;;;;;;;5053516;28;20132;-79
2023/07/19 00:18:16;;;;;;;4.35;1.98;;;;;;;;;;5066519;28;20479;-80
2023/07/19 00:20:41;;;;;;;5.47;2.35;;;;;;;;;;5072220;28;20052;-80
2023/07/19 00:23:07;;;;;;;4.28;1.85;;;;;;;;;;5055693;28;20243;-79
2023/07/19 00:25:32;;;;;;;4.55;1.80;;;;;;;;;;5060856;28;20087;-79
2023/07/19 00:27:58;;;;;;;7.25;2.22;;;;;;;;;;5051838;28;20503;-79
2023/07/19 00:30:23;;;;;;;4.80;2.30;;;;;;;;;;5059215;28;20206;-80
2023/07/19 00:32:48;;;;;;;5.90;2.20;;;;;;;;;;5077095;28;20051;-79
2023/07/19 00:35:14;;;;;;;5.70;2.20;;;;;;;;;;5066432;28;20033;-80
2023/07/19 00:37:39;;;;;;;4.43;2.10;;;;;;;;;;5064524;28;20043;-79
2023/07/19 00:40:06;;;;;;;4.13;1.90;;;;;;;;;;5065438;28;20538;-79
2023/07/19 00:42:51;;;;;;;4.18;1.98;;;;;;;;;;5042934;28;20520;-81
2023/07/19 00:45:17;;;;;;;4.80;2.00;;;;;;;;;;4990885;28;20034;-79
2023/07/19 00:47:42;;;;;;;4.93;2.20;;;;;;;;;;4976594;28;20542;-79
2023/07/19 00:50:08;;;;;;;5.30;2.40;;;;;;;;;;4994959;28;20068;-80
2023/07/19 00:52:34;;;;;;;6.82;2.10;;;;;;;;;;4977593;28;20160;-80
2023/07/19 00:55:00;;;;;;;4.65;2.30;;;;;;;;;;4982556;28;20038;-78
2023/07/19 00:57:25;;;;;;;4.97;2.20;;;;;;;;;;4990240;28;20072;-80
2023/07/19 00:59:51;;;;;;;6.97;2.28;;;;;;;;;;4985190;28;20469;-80
2023/07/19 01:02:20;;;;;;;6.53;2.17;;;;;;;;;;4964016;28;20596;-79
2023/07/19 01:04:45;;;;;;;5.55;1.92;;;;;;;;;;4962774;28;20064;-79
2023/07/19 01:07:13;;;;;;;8.27;2.05;;;;;;;;;;4966525;28;20057;-80
2023/07/19 01:09:38;;;;;;;5.35;1.85;;;;;;;;;;4956916;28;20121;-79
2023/07/19 01:12:04;;;;;;;5.97;2.20;;;;;;;;;;4941802;28;20113;-80
2023/07/19 01:14:30;;;;;;;4.40;2.00;;;;;;;;;;4950489;28;20043;-81
2023/07/19 01:16:55;;;;;;;5.47;2.08;;;;;;;;;;4970970;28;20042;-80
2023/07/19 01:19:23;;;;;;;4.18;1.98;;;;;;;;;;4982747;28;20506;-79
2023/07/19 01:21:49;;;;;;;6.15;2.15;;;;;;;;;;5013674;28;20032;-80
2023/07/19 01:24:14;;;;;;;4.53;1.90;;;;;;;;;;5051882;28;20098;-79
2023/07/19 01:26:43;;;;;;;3.60;2.30;;;;;;;;;;5055137;28;20415;-80
2023/07/19 01:29:08;;;;;;;6.63;2.47;;;;;;;;;;5060862;28;20523;-81
2023/07/19 01:31:34;;;;;;;4.93;2.17;;;;;;;;;;5077769;28;20040;-79
2023/07/19 01:33:59;;;;;;;4.20;2.00;;;;;;;;;;5064639;28;20039;-79
2023/07/19 01:36:26;;;;;;;5.00;2.47;;;;;;;;;;5046942;28;21119;-80
2023/07/19 01:38:51;;;;;;;5.28;2.13;;;;;;;;;;5057435;28;20044;-80
2023/07/19 01:41:16;;;;;;;5.03;2.30;;;;;;;;;;5071340;28;20040;-80
2023/07/19 01:43:42;;;;;;;5.15;2.50;;;;;;;;;;5070580;28;20043;-79
2023/07/19 01:46:09;;;;;;;6.25;2.10;;;;;;;;;;5073216;28;20032;-81
2023/07/19 01:48:36;;;;;;;4.97;2.05;;;;;;;;;;5043437;28;20530;-80
2023/07/19 01:51:05;;;;;;;5.53;2.38;;;;;;;;;;5072852;28;20028;-80
2023/07/19 01:53:30;;;;;;;5.47;2.38;;;;;;;;;;5065992;28;20469;-81
2023/07/19 01:55:56;;;;;;;5.50;2.10;;;;;;;;;;5058743;28;20028;-79
2023/07/19 01:58:22;;;;;;;5.47;2.65;;;;;;;;;;5061275;28;20484;-81
2023/07/19 02:01:08;;;;;;;4.93;1.90;;;;;;;;;;5060988;28;20038;-82
2023/07/19 02:03:33;;;;;;;6.65;2.30;;;;;;;;;;5004179;28;20042;-80
2023/07/19 02:06:01;;;;;;;3.95;2.08;;;;;;;;;;5020017;28;20188;-79
2023/07/19 02:08:27;;;;;;;5.88;1.98;;;;;;;;;;5006969;28;20104;-80
2023/07/19 02:10:54;;;;;;;3.67;1.88;;;;;;;;;;4991011;28;20465;-81
2023/07/19 02:13:19;;;;;;;5.20;2.30;;;;;;;;;;5022816;28;20512;-79
2023/07/19 02:15:45;;;;;;;5.50;2.25;;;;;;;;;;4991558;28;20133;-81
2023/07/19 02:18:16;;;;;;;4.47;1.88;;;;;;;;;;5000048;28;20497;-79
2023/07/19 02:20:45;;;;;;;4.43;2.10;;;;;;;;;;4991488;28;20033;-79
2023/07/19 02:23:11;;;;;;;5.40;2.10;;;;;;;;;;5006325;28;20049;-79
2023/07/19 02:25:39;;;;;;;4.18;2.10;;;;;;;;;;5007503;28;20076;-80
2023/07/19 02:28:05;;;;;;;4.72;2.10;;;;;;;;;;5040568;28;20515;-79
2023/07/19 02:30:32;;;;;;;5.45;1.90;;;;;;;;;;5003884;28;20041;-79
2023/07/19 02:32:57;;;;;;;3.58;1.90;;;;;;;;;;5004805;28;20045;-79
2023/07/19 02:35:22;;;;;;;5.60;2.03;;;;;;;;;;5003933;28;20392;-81
2023/07/19 02:37:48;;;;;;;4.50;2.00;;;;;;;;;;5006050;28;20488;-81
2023/07/19 02:40:13;;;;;;;4.28;1.95;;;;;;;;;;5030187;28;20032;-81
2023/07/19 02:42:39;;;;;;;3.67;1.90;;;;;;;;;;5067670;28;20061;-80
2023/07/19 02:45:05;;;;;;;4.80;2.00;;;;;;;;;;5071441;28;20033;-81
2023/07/19 02:47:32;;;;;;;3.75;1.90;;;;;;;;;;5054276;28;20036;-80
2023/07/19 02:49:57;;;;;;;5.93;2.00;;;;;;;;;;5064267;28;20088;-80
2023/07/19 02:52:22;;;;;;;4.18;2.00;;;;;;;;;;5059526;28;20036;-80
2023/07/19 02:54:50;;;;;;;6.43;2.28;;;;;;;;;;5079982;28;20032;-80
2023/07/19 02:57:16;;;;;;;7.38;2.15;;;;;;;;;;5054973;28;20111;-80
2023/07/19 02:59:41;;;;;;;4.15;1.75;;;;;;;;;;5067156;28;20161;-80
2023/07/19 03:02:10;;;;;;;4.50;2.20;;;;;;;;;;5058858;28;20040;-79
2023/07/19 03:04:40;;;;;;;5.63;2.95;;;;;;;;;;5067327;28;20123;-80
2023/07/19 03:07:07;;;;;;;6.40;2.08;;;;;;;;;;5049048;28;20055;-80
2023/07/19 03:09:33;;;;;;;4.32;1.88;;;;;;;;;;5038915;28;20036;-79
2023/07/19 03:11:58;;;;;;;4.65;2.10;;;;;;;;;;5062969;28;20123;-79
2023/07/19 03:14:44;;;;;;;4.95;1.75;;;;;;;;;;5056712;28;20395;-80
2023/07/19 03:17:09;;;;;;;9.32;2.30;;;;;;;;;;5027050;28;20041;-80
2023/07/19 03:19:35;;;;;;;4.53;1.90;;;;;;;;;;5044270;28;20040;-80
2023/07/19 03:22:02;;;;;;;5.00;1.80;;;;;;;;;;5018090;28;20041;-80
2023/07/19 03:24:27;;;;;;;5.90;2.20;;;;;;;;;;4993450;28;20575;-80
2023/07/19 03:26:55;;;;;;;5.00;1.98;;;;;;;;;;4993350;28;20037;-80
2023/07/19 03:29:20;;;;;;;3.83;1.90;;;;;;;;;;5005539;28;20033;-79
2023/07/19 03:31:46;;;;;;;4.35;2.00;;;;;;;;;;5020381;28;20033;-83
2023/07/19 03:34:11;;;;;;;8.32;2.22;;;;;;;;;;4988608;28;20505;-80
2023/07/19 03:36:37;;;;;;;4.53;1.85;;;;;;;;;;5009441;28;20530;-80
2023/07/19 03:39:03;;;;;;;4.53;1.90;;;;;;;;;;5026147;28;20033;-80
2023/07/19 03:41:29;;;;;;;4.15;2.08;;;;;;;;;;5027129;28;20500;-80
2023/07/19 03:43:54;;;;;;;4.72;1.77;;;;;;;;;;5044045;28;20039;-81
2023/07/19 03:46:20;;;;;;;5.90;1.90;;;;;;;;;;5017739;28;20456;-81
2023/07/19 03:48:48;;;;;;;4.30;1.80;;;;;;;;;;5027916;28;20033;-80
2023/07/19 03:51:14;;;;;;;3.78;1.65;;;;;;;;;;5026598;28;20029;-81
2023/07/19 03:53:41;;;;;;;4.00;1.88;;;;;;;;;;5033434;28;20556;-80
2023/07/19 03:56:07;;;;;;;4.65;1.88;;;;;;;;;;5063643;28;20809;-79
2023/07/19 03:58:32;;;;;;;5.95;1.83;;;;;;;;;;5055629;28;20116;-80
2023/07/19 04:00:58;;;;;;;5.03;1.90;;;;;;;;;;5066203;28;20115;-81
2023/07/19 04:03:29;;;;;;;3.83;1.83;;;;;;;;;;5073357;28;20028;-80
2023/07/19 04:05:57;;;;;;;6.55;1.73;;;;;;;;;;5055349;28;20039;-80
2023/07/19 04:08:22;;;;;;;3.92;2.00;;;;;;;;;;5062326;28;20480;-80
2023/07/19 04:10:47;;;;;;;4.28;1.95;;;;;;;;;;5057329;28;20039;-80
2023/07/19 04:13:15;;;;;;;4.70;1.70;;;;;;;;;;5067105;28;20115;-81
2023/07/19 04:15:41;;;;;;;3.28;1.25;;;;;;;;;;5065861;28;20044;-80
2023/07/19 04:18:07;;;;;;;4.20;1.30;;;;;;;;;;5056228;28;20091;-80
2023/07/19 04:20:33;;;;;;;3.90;1.70;;;;;;;;;;5064562;28;20032;-82
2023/07/19 04:22:59;;;;;;;5.60;1.67;;;;;;;;;;5059688;28;20028;-80
2023/07/19 04:25:24;;;;;;;5.03;1.73;;;;;;;;;;5059869;28;20043;-82
2023/07/19 04:27:53;;;;;;;4.53;1.77;;;;;;;;;;5062974;28;20078;-81
2023/07/19 04:30:19;;;;;;;4.18;1.50;;;;;;;;;;5039057;28;20116;-80
2023/07/19 04:32:44;;;;;;;4.93;1.90;;;;;;;;;;5063062;28;20152;-80
2023/07/19 04:35:10;;;;;;;3.25;1.60;;;;;;;;;;5072713;28;20794;-80
2023/07/19 04:37:35;;;;;;;3.22;1.30;;;;;;;;;;5064636;28;20040;-80
2023/07/19 04:40:01;;;;;;;3.22;1.52;;;;;;;;;;5049985;28;20036;-80
2023/07/19 04:42:28;;;;;;;2.83;1.40;;;;;;;;;;5059057;28;20052;-82
2023/07/19 04:44:53;;;;;;;4.18;1.60;;;;;;;;;;5061841;28;20029;-82
2023/07/19 04:47:19;;;;;;;4.28;1.33;;;;;;;;;;5071111;28;20502;-82
2023/07/19 04:49:44;;;;;;;4.50;1.77;;;;;;;;;;5042552;28;20041;-80
2023/07/19 04:52:10;;;;;;;4.93;1.60;;;;;;;;;;5056068;28;20038;-82
2023/07/19 04:54:35;;;;;;;3.42;1.67;;;;;;;;;;5056309;28;20445;-82
2023/07/19 04:57:00;;;;;;;3.63;1.60;;;;;;;;;;5072838;28;20033;-81
2023/07/19 04:59:26;;;;;;;4.13;1.50;;;;;;;;;;5082263;28;20067;-81
2023/07/19 05:01:51;;;;;;;3.47;1.23;;;;;;;;;;5052976;28;20036;-81
2023/07/19 05:04:17;;;;;;;3.47;1.60;;;;;;;;;;5052640;28;20516;-80
2023/07/19 05:06:43;;;;;;;4.32;1.60;;;;;;;;;;5057481;28;20637;-81
2023/07/19 05:09:09;;;;;;;4.72;1.52;;;;;;;;;;5052773;28;20048;-81
2023/07/19 05:11:43;;;;;;;5.63;1.67;;;;;;;;;;5055310;28;20033;-81
2023/07/19 05:14:08;;;;;;;3.75;1.48;;;;;;;;;;5074688;28;20039;-80
2023/07/19 05:16:34;;;;;;;4.22;1.55;;;;;;;;;;5059186;28;20036;-80
2023/07/19 05:19:00;;;;;;;4.72;1.60;;;;;;;;;;5048974;28;20037;-83
2023/07/19 05:21:25;;;;;;;6.90;2.58;;;;;;;;;;5065932;28;20175;-83
2023/07/19 05:23:50;;;;;;;4.15;1.70;;;;;;;;;;5058102;28;20484;-83
2023/07/19 05:26:16;;;;;;;4.35;1.85;;;;;;;;;;5066243;28;20028;-83
2023/07/19 05:28:42;;;;;;;3.55;1.60;;;;;;;;;;5073542;28;20028;-82
2023/07/19 05:31:10;;;;;;;4.50;1.65;;;;;;;;;;5065948;28;20074;-82
2023/07/19 05:33:35;;;;;;;4.85;1.67;;;;;;;;;;5072209;28;20036;-83
2023/07/19 05:36:01;;;;;;;4.47;1.60;;;;;;;;;;5057312;28;20032;-82
2023/07/19 05:38:29;;;;;;;5.68;1.83;;;;;;;;;;5073148;28;20036;-83
2023/07/19 05:41:06;;;;;;;6.00;1.60;;;;;;;;;;5064195;28;20119;-82
2023/07/19 05:43:32;;;;;;;3.47;1.52;;;;;;;;;;5062577;28;20063;-83
2023/07/19 05:46:09;;;;;;;7.70;1.70;;;;;;;;;;5057919;28;20040;-83
2023/07/19 05:48:35;;;;;;;5.90;1.50;;;;;;;;;;5055302;28;20045;-83
2023/07/19 05:51:02;;;;;;;3.97;1.42;;;;;;;;;;5078425;28;20391;-83
2023/07/19 05:53:28;;;;;;;4.60;1.42;;;;;;;;;;5062710;28;20772;-82
2023/07/19 05:55:56;;;;;;;6.97;1.65;;;;;;;;;;5063544;28;20033;-83
2023/07/19 05:58:22;;;;;;;4.00;1.70;;;;;;;;;;5061056;28;20056;-84
2023/07/19 06:00:48;;;;;;;3.63;1.58;;;;;;;;;;5063464;28;20044;-84
2023/07/19 06:03:16;;;;;;;3.53;1.58;;;;;;;;;;5072851;28;20356;-83
2023/07/19 06:05:42;;;;;;;4.93;2.05;;;;;;;;;;5057584;28;20109;-83
2023/07/19 06:08:08;;;;;;;4.90;1.73;;;;;;;;;;5062788;28;20383;-82
2023/07/19 06:10:33;;;;;;;3.30;1.38;;;;;;;;;;5062915;28;20032;-83
2023/07/19 06:13:19;;;;;;;4.85;1.58;;;;;;;;;;5056397;28;20043;-83
2023/07/19 06:15:44;;;;;;;3.65;1.50;;;;;;;;;;4970868;28;20050;-82
2023/07/19 06:18:10;;;;;;;4.78;1.70;;;;;;;;;;4981306;28;20053;-80
2023/07/19 06:20:35;;;;;;;5.93;2.35;;;;;;;;;;4985814;28;20040;-83
2023/07/19 06:23:02;;;;;;;5.05;1.92;;;;;;;;;;4970254;28;20038;-82
2023/07/19 06:25:28;;;;;;;3.47;1.40;;;;;;;;;;4969370;28;20116;-83
2023/07/19 06:27:53;;;;;;;4.90;1.77;;;;;;;;;;4993125;28;20610;-82
2023/07/19 06:30:18;;;;;;;6.28;1.70;;;;;;;;;;4971214;28;20488;-83
2023/07/19 06:32:44;;;;;;;3.40;1.30;;;;;;;;;;4989644;28;20061;-83
2023/07/19 06:35:12;;;;;;;4.03;1.52;;;;;;;;;;4965518;28;20144;-81
2023/07/19 06:37:37;;;;;;;3.58;1.42;;;;;;;;;;4972567;28;20047;-82
2023/07/19 06:40:03;;;;;;;4.57;1.25;;;;;;;;;;4964605;28;20422;-82
2023/07/19 06:42:31;;;;;;;4.60;1.60;;;;;;;;;;4988481;28;20148;-83
2023/07/19 06:45:02;;;;;;;3.97;1.52;;;;;;;;;;4968057;28;20033;-81
2023/07/19 06:47:29;;;;;;;2.88;1.33;;;;;;;;;;4990523;28;20095;-82
2023/07/19 06:49:58;;;;;;;3.95;1.50;;;;;;;;;;4972158;28;20402;-82
2023/07/19 06:52:28;;;;;;;3.28;1.30;;;;;;;;;;4999324;28;20041;-83
2023/07/19 06:54:54;;;;;;;3.20;1.50;;;;;;;;;;5057936;28;20479;-82
2023/07/19 06:57:20;;;;;;;6.13;1.75;;;;;;;;;;5058408;28;20097;-82
2023/07/19 06:59:54;;;;;;;4.57;1.40;;;;;;;;;;5077391;28;20081;-82
2023/07/19 07:02:20;;;;;;;4.20;1.40;;;;;;;;;;5055340;28;20028;-82
2023/07/19 07:04:46;;;;;;;4.22;1.83;;;;;;;;;;5055313;28;20039;-82
2023/07/19 07:07:14;;;;;;;5.32;1.90;;;;;;;;;;5062200;28;20036;-82
2023/07/19 07:09:53;;;;;;;4.63;1.63;;;;;;;;;;5078224;28;20032;-82
2023/07/19 07:12:18;;;;;;;3.63;1.55;;;;;;;;;;5058752;28;20033;-82
2023/07/19 07:14:44;;;;;;;7.13;1.70;;;;;;;;;;5057761;28;20399;-83
2023/07/19 07:17:09;;;;;;;6.15;1.70;;;;;;;;;;5074582;28;20051;-82
2023/07/19 07:19:40;;;;;;;5.22;1.73;;;;;;;;;;5041196;28;20577;-81
2023/07/19 07:22:06;;;;;;;3.75;1.60;;;;;;;;;;5082796;28;20058;-82
2023/07/19 07:24:31;;;;;;;4.22;1.40;;;;;;;;;;5063277;28;20066;-81
2023/07/19 07:27:00;;;;;;;5.60;2.22;;;;;;;;;;5082481;28;20037;-81
2023/07/19 07:29:25;;;;;;;5.60;1.55;;;;;;;;;;5060348;28;20370;-82
2023/07/19 07:31:51;;;;;;;6.78;1.75;;;;;;;;;;5065364;28;20029;-81
2023/07/19 07:34:21;;;;;;;5.00;1.80;;;;;;;;;;5076396;28;20380;-81
2023/07/19 07:36:50;;;;;;;3.78;1.38;;;;;;;;;;5054905;28;20135;-84
2023/07/19 07:39:15;;;;;;;4.85;1.80;;;;;;;;;;5069970;28;20024;-82
2023/07/19 07:41:40;;;;;;;6.45;1.85;;;;;;;;;;5062604;28;20514;-83
2023/07/19 07:44:08;;;;;;;4.72;1.40;;;;;;;;;;5060796;28;20562;-84
2023/07/19 07:46:34;;;;;;;3.88;1.35;;;;;;;;;;5064878;28;20617;-82
2023/07/19 07:49:00;;;;;;;3.20;1.45;;;;;;;;;;5061359;28;20043;-82
2023/07/19 07:51:29;;;;;;;4.90;1.20;;;;;;;;;;5047667;28;20032;-82
2023/07/19 07:53:55;;;;;;;5.30;1.42;;;;;;;;;;5064417;28;20024;-82
2023/07/19 07:56:22;;;;;;;3.83;1.42;;;;;;;;;;5081522;28;20040;-82
2023/07/19 07:58:47;;;;;;;8.88;1.50;;;;;;;;;;5066385;28;20410;-83
2023/07/19 08:01:16;;;;;;;6.65;1.70;;;;;;;;;;5069046;28;20046;-83
2023/07/19 08:03:42;;;;;;;5.28;1.50;;;;;;;;;;5073389;28;20039;-83
2023/07/19 08:06:07;;;;;;;5.07;1.60;;;;;;;;;;5067570;28;21137;-84
2023/07/19 08:08:32;;;;;;;4.72;1.40;;;;;;;;;;5064480;28;20029;-83
2023/07/19 08:10:58;;;;;;;4.82;1.58;;;;;;;;;;5075462;28;20028;-83
2023/07/19 08:13:33;;;;;;;4.22;1.45;;;;;;;;;;5047677;28;20092;-82
2023/07/19 08:15:58;;;;;;;5.25;1.52;;;;;;;;;;5061629;28;20143;-83
2023/07/19 08:18:24;;;;;;;4.82;1.30;;;;;;;;;;5064480;28;20128;-82
2023/07/19 08:20:50;;;;;;;3.72;1.20;;;;;;;;;;5048378;28;20067;-83
2023/07/19 08:23:16;;;;;;;3.15;1.33;;;;;;;;;;5069183;28;20059;-83
2023/07/19 08:25:57;;;;;;;6.50;1.65;;;;;;;;;;5061910;28;20028;-82
2023/07/19 08:28:26;;;;;;;3.55;1.35;;;;;;;;;;5041589;28;20063;-82
2023/07/19 08:30:52;;;;;;;4.30;1.30;;;;;;;;;;5042593;28;20436;-83
2023/07/19 08:33:22;;;;;;;6.05;1.33;;;;;;;;;;5073330;28;20679;-83
2023/07/19 08:35:49;;;;;;;4.35;1.20;;;;;;;;;;5068599;27;20384;-83
2023/07/19 08:38:16;;;;;;;4.80;1.38;;;;;;;;;;5059952;28;20036;-83
2023/07/19 08:40:49;;;;;;;2.83;1.27;;;;;;;;;;5041320;28;20067;-83
2023/07/19 08:43:20;;;;;;;4.88;1.40;;;;;;;;;;5056668;28;20060;-83
2023/07/19 08:45:45;;;;;;;4.32;1.50;;;;;;;;;;5038182;28;20036;-84
2023/07/19 08:48:11;;;;;;;3.88;1.30;;;;;;;;;;5057342;28;20427;-83
2023/07/19 08:50:36;;;;;;;2.72;1.35;;;;;;;;;;5064415;28;20028;-83
2023/07/19 08:53:02;;;;;;;2.40;1.00;;;;;;;;;;5065534;28;20404;-83
2023/07/19 08:55:36;;;;;;;3.80;1.38;;;;;;;;;;5055657;28;20083;-82
2023/07/19 08:58:01;;;;;;;4.43;1.40;;;;;;;;;;5072105;28;20488;-81
2023/07/19 09:00:31;;;;;;;3.92;1.50;;;;;;;;;;5056682;28;20051;-84
2023/07/19 09:02:57;;;;;;;4.85;1.48;;;;;;;;;;5061253;28;20749;-83
2023/07/19 09:05:28;;;;;;;3.22;1.35;;;;;;;;;;5062378;28;20032;-83
2023/07/19 09:07:54;;;;;;;3.00;1.20;;;;;;;;;;5056627;28;20032;-80
2023/07/19 09:10:19;;;;;;;4.32;1.50;;;;;;;;;;5063606;28;20373;-82
2023/07/19 09:12:46;;;;;;;4.43;1.40;;;;;;;;;;5056477;28;20181;-81
2023/07/19 09:15:14;;;;;;;3.78;1.50;;;;;;;;;;5061833;28;20106;-81
2023/07/19 09:17:50;;;;;;;3.30;1.20;;;;;;;;;;5038181;28;20136;-83
2023/07/19 09:20:17;;;;;;;4.70;1.50;;;;;;;;;;5070207;28;20040;-83
2023/07/19 09:22:42;;;;;;;3.35;1.30;;;;;;;;;;5059786;28;20036;-83
2023/07/19 09:25:10;;;;;;;3.03;1.30;;;;;;;;;;5071228;28;20048;-83
2023/07/19 09:28:08;;;;;;;4.05;1.50;;;;;;;;;;5054344;28;20492;-82
2023/07/19 09:30:34;;;;;;;2.70;1.13;;;;;;;;;;5003796;28;20052;-82
2023/07/19 09:33:00;;;;;;;3.45;1.23;;;;;;;;;;4995289;28;20046;-82
2023/07/19 09:35:34;;;;;;;4.53;1.20;;;;;;;;;;4973640;28;20068;-83
2023/07/19 09:37:59;;;;;;;3.85;1.20;;;;;;;;;;4996732;28;20076;-83
2023/07/19 09:40:31;;;;;;;3.65;1.10;;;;;;;;;;4976262;28;20525;-84
2023/07/19 09:43:03;;;;;;;2.80;1.10;;;;;;;;;;4980890;28;20042;-84
2023/07/19 09:45:32;;;;;;;3.40;1.35;;;;;;;;;;4957083;28;20202;-83
2023/07/19 09:47:58;;;;;;;5.10;1.45;;;;;;;;;;5004161;28;20034;-82
2023/07/19 09:50:24;;;;;;;5.10;1.33;;;;;;;;;;4982909;28;20124;-83
2023/07/19 09:52:51;;;;;;;3.22;1.30;;;;;;;;;;5004000;28;20030;-83
2023/07/19 09:55:17;;;;;;;;;;;;;;;;;;5003229;28;20044;-83
2023/07/19 09:57:47;;;;;;;3.87;1.30;;;;;;;;;;4987468;28;20316;-84
2023/07/19 10:00:13;;;;;;;5.35;1.27;;;;;;;;;;4987454;28;20114;-79
2023/07/19 10:02:41;;;;;;;2.63;1.02;;;;;;;;;;4993766;28;20531;-79
2023/07/19 10:05:10;;;;;;;3.63;1.33;;;;;;;;;;4997926;28;20033;-79
2023/07/19 10:07:36;;;;;;;3.05;1.10;;;;;;;;;;5002572;28;20898;-79
2023/07/19 10:10:05;;;;;;;4.32;1.20;;;;;;;;;;5044760;28;20028;-78
2023/07/19 10:12:45;;;;;;;4.95;1.40;;;;;;;;;;5064737;28;20074;-79
2023/07/19 10:15:13;;;;;;;3.53;1.20;;;;;;;;;;5058507;28;20411;-83
2023/07/19 10:17:53;;;;;;;2.90;1.30;;;;;;;;;;5078936;28;20059;-83
2023/07/19 10:20:29;;;;;;;4.13;1.40;;;;;;;;;;5072215;28;20042;-83
2023/07/19 10:23:05;;;;;;;3.83;1.27;;;;;;;;;;5080323;28;20120;-83
2023/07/19 10:25:47;;;;;;;3.97;1.50;;;;;;;;;;5036106;28;20082;-83
2023/07/19 10:28:14;;;;;;;3.13;1.23;;;;;;;;;;5038618;28;21213;-84
2023/07/19 10:31:50;;;;;;;4.17;1.43;;;;;;;;;;5028229;28;20052;-83
2023/07/19 10:34:09;;;;;;;3.63;1.80;;;;;;;;;;5040700;28;20331;-84
2023/07/19 10:36:44;;;;;;;4.00;1.35;;;;;;;;;;5043551;28;20430;-84
2023/07/19 10:39:31;;;;;;;2.63;1.13;;;;;;;;;;5054671;28;20036;-85
2023/07/19 10:41:57;;;;;;;3.25;1.30;;;;;;;;;;5029848;28;20044;-84
2023/07/19 10:44:24;;;;;;;3.27;1.17;;;;;;;;;;5049759;28;20138;-84
2023/07/19 10:46:55;;;;;;;3.90;1.20;;;;;;;;;;5049133;28;20307;-85
2023/07/19 10:49:49;;;;;;;4.13;1.20;;;;;;;;;;5051504;28;20028;-84
2023/07/19 10:52:27;;;;;;;3.15;1.30;;;;;;;;;;5049529;28;20123;-85
2023/07/19 10:54:54;;;;;;;5.43;1.30;;;;;;;;;;5028090;28;20047;-86
2023/07/19 10:57:40;;;;;;;4.15;1.38;;;;;;;;;;5032647;28;20488;-83
2023/07/19 11:00:15;;;;;;;4.03;1.20;;;;;;;;;;5057622;27;20479;-86
2023/07/19 11:02:41;;;;;;;6.93;1.23;;;;;;;;;;5059482;28;20061;-84
2023/07/19 11:05:07;;;;;;;4.90;1.30;;;;;;;;;;5068205;28;20119;-84
2023/07/19 11:07:34;;;;;;;7.50;1.38;;;;;;;;;;5051596;28;20574;-81
2023/07/19 11:10:08;;;;;;;5.00;1.35;;;;;;;;;;5065720;28;20032;-85
2023/07/19 11:12:33;;;;;;;4.13;1.27;;;;;;;;;;5048398;28;20037;-84
2023/07/19 11:15:03;;;;;;;5.07;1.20;;;;;;;;;;5066841;28;20041;-82
2023/07/19 11:17:31;;;;;;;3.03;1.27;;;;;;;;;;5071394;28;20588;-85
2023/07/19 11:19:59;;;;;;;3.45;1.38;;;;;;;;;;5063790;28;20032;-84
2023/07/19 11:22:26;;;;;;;3.50;1.40;;;;;;;;;;5074119;28;20044;-84
2023/07/19 11:24:53;;;;;;;6.18;1.48;;;;;;;;;;5067297;28;20036;-84
2023/07/19 11:27:24;;;;;;;3.28;1.13;;;;;;;;;;5060586;28;20027;-84
2023/07/19 11:29:50;;;;;;;4.10;1.15;;;;;;;;;;5060564;28;20490;-83
2023/07/19 11:32:23;;;;;;;4.18;1.33;;;;;;;;;;5061297;28;20032;-84
2023/07/19 11:35:01;;;;;;;3.50;1.27;;;;;;;;;;5037884;28;20113;-84
2023/07/19 11:37:32;;;;;;;3.55;1.30;;;;;;;;;;5063682;27;20497;-84
2023/07/19 11:39:58;;;;;;;3.78;1.45;;;;;;;;;;5055316;28;20040;-85
2023/07/19 11:42:47;;;;;;;3.15;1.30;;;;;;;;;;5061848;28;20388;-84
2023/07/19 11:45:14;;;;;;;5.25;1.52;;;;;;;;;;5067392;28;20052;-83
2023/07/19 11:47:41;;;;;;;3.75;1.30;;;;;;;;;;5058572;28;20090;-87
2023/07/19 11:50:08;;;;;;;5.00;1.45;;;;;;;;;;5056629;28;20047;-85
2023/07/19 11:52:51;;;;;;;3.45;1.17;;;;;;;;;;5065734;28;20508;-84
2023/07/19 11:55:18;;;;;;;3.83;1.10;;;;;;;;;;5064509;28;20028;-84
2023/07/19 11:57:44;;;;;;;;;;;;;;;;;;5063979;28;20487;-83
2023/07/19 12:00:16;;;;;;;3.53;1.50;;;;;;;;;;5050220;28;19923;-83
2023/07/19 12:02:46;;;;;;;3.65;1.40;;;;;;;;;;5029436;28;20085;-84
2023/07/19 12:05:28;;;;;;;2.97;1.38;;;;;;;;;;5077479;28;20043;-85
2023/07/19 12:07:55;;;;;;;4.63;1.40;;;;;;;;;;5063556;28;20177;-83
2023/07/19 12:10:21;;;;;;;5.30;1.50;;;;;;;;;;5122853;23;20500;-82
2023/07/19 12:12:50;;;;;;;3.25;1.50;;;;;;;;;;5007657;28;20382;-82
2023/07/19 12:15:31;;;;;;;4.97;1.40;;;;;;;;;;5030839;28;20128;-83
2023/07/19 12:17:57;;;;;;;5.72;1.52;;;;;;;;;;5024847;28;20041;-83
2023/07/19 12:20:24;;;;;;;6.15;1.40;;;;;;;;;;4994065;28;20042;-84
2023/07/19 12:22:54;;;;;;;3.58;1.50;;;;;;;;;;5007417;28;20041;-84
2023/07/19 12:25:26;;;;;;;4.70;1.65;;;;;;;;;;4994884;28;20400;-84
2023/07/19 12:27:54;;;;;;;4.15;1.50;;;;;;;;;;5019492;28;20619;-84
2023/07/19 12:30:19;;;;;;;;;;;;;;;;;;5005227;28;20049;-84
2023/07/19 12:33:07;;;;;;;3.88;1.55;;;;;;;;;;5025285;28;20062;-84
2023/07/19 12:35:33;;;;;;;3.78;1.40;;;;;;;;;;5012491;28;20133;-82
2023/07/19 12:37:58;;;;;;;4.38;1.50;;;;;;;;;;5004523;28;20159;-82
2023/07/19 12:40:27;;;;;;;3.30;1.38;;;;;;;;;;5023827;28;20044;-83
2023/07/19 12:42:57;;;;;;;4.82;1.55;;;;;;;;;;5006273;28;20057;-83
2023/07/19 12:45:25;;;;;;;4.75;1.50;;;;;;;;;;4994277;28;20037;-83
2023/07/19 12:47:51;;;;;;;5.10;1.50;;;;;;;;;;5011002;28;20432;-83
2023/07/19 12:50:16;;;;;;;4.10;1.40;;;;;;;;;;5007664;28;20044;-84
2023/07/19 12:52:45;;;;;;;4.25;1.60;;;;;;;;;;5015236;28;20044;-82
2023/07/19 12:55:10;;;;;;;4.22;1.40;;;;;;;;;;4991220;28;20037;-83
2023/07/19 12:57:36;;;;;;;4.55;1.45;;;;;;;;;;5007176;28;20049;-83
2023/07/19 13:00:04;;;;;;;6.82;1.63;;;;;;;;;;4999511;28;20053;-83
2023/07/19 13:02:34;;;;;;;3.25;1.40;;;;;;;;;;5008113;28;20552;-84
2023/07/19 13:05:17;;;;;;;2.88;1.33;;;;;;;;;;4997233;28;20459;-84
2023/07/19 13:07:43;;;;;;;3.00;1.52;;;;;;;;;;5007937;28;20070;-84
2023/07/19 13:10:13;;;;;;;4.13;1.52;;;;;;;;;;5000319;28;20520;-83
2023/07/19 13:12:41;;;;;;;3.67;1.20;;;;;;;;;;4995065;28;20837;-84
2023/07/19 13:15:29;;;;;;;3.83;1.58;;;;;;;;;;4980904;28;20173;-85
2023/07/19 13:17:55;;;;;;;4.47;1.50;;;;;;;;;;4967009;28;20519;-84
2023/07/19 13:20:26;;;;;;;5.00;1.80;;;;;;;;;;4993412;28;20197;-84
2023/07/19 13:22:51;;;;;;;4.50;1.35;;;;;;;;;;4976156;28;20171;-84
2023/07/19 13:25:22;;;;;;;3.63;1.48;;;;;;;;;;5016728;28;20120;-83
2023/07/19 13:27:48;;;;;;;3.38;1.40;;;;;;;;;;4978519;28;20070;-84
2023/07/19 13:30:13;;;;;;;4.90;1.52;;;;;;;;;;4978844;28;20041;-84
2023/07/19 13:32:48;;;;;;;4.43;1.30;;;;;;;;;;4997393;28;20045;-84
2023/07/19 13:35:19;;;;;;;3.67;1.30;;;;;;;;;;4966068;28;20061;-84
2023/07/19 13:37:53;;;;;;;4.60;1.40;;;;;;;;;;4936156;28;20040;-84
2023/07/19 13:40:44;;;;;;;3.85;1.60;;;;;;;;;;4986490;28;20034;-84
2023/07/19 13:43:27;;;;;;;3.10;1.30;;;;;;;;;;4998856;28;20041;-84
2023/07/19 13:45:54;;;;;;;4.10;1.33;;;;;;;;;;4998326;28;20038;-85
2023/07/19 13:48:22;;;;;;;4.45;1.55;;;;;;;;;;4974403;28;20045;-84
2023/07/19 13:51:13;;;;;;;4.97;1.23;;;;;;;;;;4984088;28;20041;-86
2023/07/19 13:53:44;;;;;;;3.58;1.38;;;;;;;;;;4981739;28;20030;-85
2023/07/19 13:56:12;;;;;;;3.97;1.20;;;;;;;;;;4955008;28;20900;-84
2023/07/19 13:58:39;;;;;;;4.00;1.30;;;;;;;;;;4982705;28;20133;-84
2023/07/19 14:01:39;;;;;;;3.55;1.30;;;;;;;;;;4985350;28;20041;-85
2023/07/19 14:04:05;;;;;;;3.58;1.30;;;;;;;;;;4978719;28;20113;-84
2023/07/19 14:06:32;;;;;;;2.70;1.30;;;;;;;;;;4982403;28;20192;-83
2023/07/19 14:08:58;;;;;;;4.28;1.63;;;;;;;;;;4967910;28;20033;-84
2023/07/19 14:11:23;;;;;;;4.45;1.30;;;;;;;;;;4978959;28;20045;-84
2023/07/19 14:14:13;;;;;;;3.40;1.48;;;;;;;;;;4976009;28;20223;-84
2023/07/19 14:16:38;;;;;;;3.10;1.40;;;;;;;;;;4992078;28;20077;-84
2023/07/19 14:19:04;;;;;;;3.50;1.30;;;;;;;;;;4974411;28;20040;-85
2023/07/19 14:21:29;;;;;;;5.65;1.30;;;;;;;;;;5008747;28;20073;-85
2023/07/19 14:23:55;;;;;;;3.45;1.40;;;;;;;;;;5011106;28;20041;-85
2023/07/19 14:26:23;;;;;;;5.40;1.50;;;;;;;;;;5006445;28;20477;-85
2023/07/19 14:28:49;;;;;;;3.75;1.55;;;;;;;;;;5015082;28;20548;-85
2023/07/19 14:31:18;;;;;;;4.07;1.60;;;;;;;;;;4971877;28;20038;-84
2023/07/19 14:33:50;;;;;;;3.25;1.30;;;;;;;;;;4977040;28;20540;-84
2023/07/19 14:36:33;;;;;;;3.78;1.33;;;;;;;;;;4981304;28;20034;-83
2023/07/19 14:38:59;;;;;;;5.82;1.30;;;;;;;;;;4992242;28;20038;-83
2023/07/19 14:41:25;;;;;;;3.72;1.20;;;;;;;;;;4987814;28;20045;-84
2023/07/19 14:44:31;;;;;;;4.68;1.50;;;;;;;;;;4980127;28;20107;-83
2023/07/19 14:47:03;;;;;;;4.10;1.30;;;;;;;;;;4944317;28;20141;-85
2023/07/19 14:49:32;;;;;;;3.65;1.50;;;;;;;;;;4963585;28;20038;-86
2023/07/19 14:52:01;;;;;;;4.55;1.10;;;;;;;;;;4979677;28;20567;-84